sensor_id;sensor_type;location;lat;lon;timestamp;pressure;altitude;pressure_sealevel;temperature;humidity
78573;BME280;67862;0.000;0.000;2023-02-28T00:01:17;100161.25;;;19.96;67.76
78573;BME280;67862;0.000;0.000;2023-02-28T00:03:42;100167.31;;;19.98;67.86
78573;BME280;67862;0.000;0.000;2023-02-28T00:06:08;100162.72;;;20.04;68.24
78573;BME280;67862;0.000;0.000;2023-02-28T00:08:34;100170.47;;;19.90;67.79
78573;BME280;67862;0.000;0.000;2023-02-28T00:11:07;100156.97;;;20.00;67.39
78573;BME280;67862;0.000;0.000;2023-02-28T00:13:33;100169.88;;;19.88;67.64
78573;BME280;67862;0.000;0.000;2023-02-28T00:16:03;100171.59;;;19.94;67.44
78573;BME280;67862;0.000;0.000;2023-02-28T00:18:32;100175.47;;;19.98;68.66
78573;BME280;67862;0.000;0.000;2023-02-28T00:21:00;100172.44;;;19.94;67.59
78573;BME280;67862;0.000;0.000;2023-02-28T00:23:26;100180.94;;;19.98;67.78
78573;BME280;67862;0.000;0.000;2023-02-28T00:25:52;100181.16;;;19.96;67.78
78573;BME280;67862;0.000;0.000;2023-02-28T00:28:17;100184.97;;;19.95;68.12
78573;BME280;67862;0.000;0.000;2023-02-28T00:30:43;100183.13;;;20.01;68.10
78573;BME280;67862;0.000;0.000;2023-02-28T00:33:08;100171.91;;;19.97;67.29
78573;BME280;67862;0.000;0.000;2023-02-28T00:35:34;100178.69;;;19.95;67.70
78573;BME280;67862;0.000;0.000;2023-02-28T00:37:59;100173.31;;;20.00;67.46
78573;BME280;67862;0.000;0.000;2023-02-28T00:40:25;100183.59;;;19.93;67.60
78573;BME280;67862;0.000;0.000;2023-02-28T00:42:50;100184.78;;;20.02;67.62
78573;BME280;67862;0.000;0.000;2023-02-28T00:45:15;100177.72;;;20.06;67.39
78573;BME280;67862;0.000;0.000;2023-02-28T00:47:41;100185.84;;;20.01;67.38
78573;BME280;67862;0.000;0.000;2023-02-28T00:50:06;100178.53;;;20.07;67.60
78573;BME280;67862;0.000;0.000;2023-02-28T00:52:32;100173.97;;;20.12;67.58
78573;BME280;67862;0.000;0.000;2023-02-28T00:54:57;100181.84;;;20.09;66.28
78573;BME280;67862;0.000;0.000;2023-02-28T00:57:22;100178.41;;;20.18;67.08
78573;BME280;67862;0.000;0.000;2023-02-28T00:59:48;100174.28;;;20.16;67.05
78573;BME280;67862;0.000;0.000;2023-02-28T01:04:59;100179.88;;;20.31;66.94
78573;BME280;67862;0.000;0.000;2023-02-28T01:07:24;100180.16;;;20.29;67.36
78573;BME280;67862;0.000;0.000;2023-02-28T01:09:49;100182.03;;;20.29;66.70
78573;BME280;67862;0.000;0.000;2023-02-28T01:12:15;100183.38;;;20.26;67.03
78573;BME280;67862;0.000;0.000;2023-02-28T01:14:40;100176.84;;;20.27;66.91
78573;BME280;67862;0.000;0.000;2023-02-28T01:17:06;100187.25;;;20.30;66.49
78573;BME280;67862;0.000;0.000;2023-02-28T01:19:31;100185.13;;;20.38;66.61
78573;BME280;67862;0.000;0.000;2023-02-28T01:21:57;100182.41;;;20.38;66.48
78573;BME280;67862;0.000;0.000;2023-02-28T01:24:25;100185.19;;;20.43;66.17
78573;BME280;67862;0.000;0.000;2023-02-28T01:26:50;100176.16;;;20.42;66.47
78573;BME280;67862;0.000;0.000;2023-02-28T01:29:16;100189.34;;;20.50;65.69
78573;BME280;67862;0.000;0.000;2023-02-28T01:31:41;100171.91;;;20.51;66.33
78573;BME280;67862;0.000;0.000;2023-02-28T01:34:06;100184.19;;;20.54;65.54
78573;BME280;67862;0.000;0.000;2023-02-28T01:36:31;100182.81;;;20.51;65.72
78573;BME280;67862;0.000;0.000;2023-02-28T01:38:57;100186.41;;;20.57;65.92
78573;BME280;67862;0.000;0.000;2023-02-28T01:41:23;100185.28;;;20.53;66.27
78573;BME280;67862;0.000;0.000;2023-02-28T01:46:15;100188.88;;;20.58;66.28
78573;BME280;67862;0.000;0.000;2023-02-28T01:51:11;100182.94;;;20.67;65.86
78573;BME280;67862;0.000;0.000;2023-02-28T01:53:40;100178.00;;;20.64;66.34
78573;BME280;67862;0.000;0.000;2023-02-28T01:56:07;100184.25;;;20.59;65.77
78573;BME280;67862;0.000;0.000;2023-02-28T01:58:34;100179.41;;;20.66;66.07
78573;BME280;67862;0.000;0.000;2023-02-28T02:00:59;100191.09;;;20.62;65.69
78573;BME280;67862;0.000;0.000;2023-02-28T02:03:24;100182.16;;;20.71;65.45
78573;BME280;67862;0.000;0.000;2023-02-28T02:05:50;100180.78;;;20.69;65.78
78573;BME280;67862;0.000;0.000;2023-02-28T02:08:20;100180.50;;;20.70;65.49
78573;BME280;67862;0.000;0.000;2023-02-28T02:10:50;100178.34;;;20.72;64.91
78573;BME280;67862;0.000;0.000;2023-02-28T02:13:28;100173.75;;;20.78;65.33
78573;BME280;67862;0.000;0.000;2023-02-28T02:39:30;100168.16;;;21.00;64.87
78573;BME280;67862;0.000;0.000;2023-02-28T02:41:58;100178.78;;;20.96;65.31
78573;BME280;67862;0.000;0.000;2023-02-28T02:46:51;100174.44;;;21.00;65.37
78573;BME280;67862;0.000;0.000;2023-02-28T02:49:24;100178.47;;;20.93;65.32
78573;BME280;67862;0.000;0.000;2023-02-28T02:51:50;100176.34;;;20.95;64.84
78573;BME280;67862;0.000;0.000;2023-02-28T02:54:21;100177.44;;;20.99;64.99
78573;BME280;67862;0.000;0.000;2023-02-28T02:56:48;100179.88;;;20.95;64.34
78573;BME280;67862;0.000;0.000;2023-02-28T02:59:15;100173.88;;;20.98;64.31
78573;BME280;67862;0.000;0.000;2023-02-28T03:01:47;100176.63;;;21.03;64.77
78573;BME280;67862;0.000;0.000;2023-02-28T03:04:16;100177.97;;;20.96;64.89
78573;BME280;67862;0.000;0.000;2023-02-28T03:06:43;100173.59;;;20.95;64.77
78573;BME280;67862;0.000;0.000;2023-02-28T03:09:09;100176.88;;;20.97;64.83
78573;BME280;67862;0.000;0.000;2023-02-28T03:11:35;100180.44;;;21.02;64.64
78573;BME280;67862;0.000;0.000;2023-02-28T03:19:42;100187.31;;;21.05;64.99
78573;BME280;67862;0.000;0.000;2023-02-28T03:24:43;100184.53;;;21.00;65.08
78573;BME280;67862;0.000;0.000;2023-02-28T03:27:16;100193.88;;;21.04;64.68
78573;BME280;67862;0.000;0.000;2023-02-28T03:29:49;100186.44;;;20.99;64.23
78573;BME280;67862;0.000;0.000;2023-02-28T03:34:46;100183.19;;;21.02;64.45
78573;BME280;67862;0.000;0.000;2023-02-28T03:37:15;100187.03;;;21.06;64.48
78573;BME280;67862;0.000;0.000;2023-02-28T03:40:04;100183.75;;;21.04;64.55
78573;BME280;67862;0.000;0.000;2023-02-28T03:42:32;100175.81;;;21.03;64.36
78573;BME280;67862;0.000;0.000;2023-02-28T03:45:02;100190.53;;;20.97;64.81
78573;BME280;67862;0.000;0.000;2023-02-28T03:47:31;100184.81;;;21.03;64.99
78573;BME280;67862;0.000;0.000;2023-02-28T03:52:25;100178.03;;;21.06;65.34
78573;BME280;67862;0.000;0.000;2023-02-28T03:54:53;100179.13;;;21.05;65.33
78573;BME280;67862;0.000;0.000;2023-02-28T03:57:25;100181.31;;;21.08;64.94
78573;BME280;67862;0.000;0.000;2023-02-28T03:59:56;100180.22;;;21.09;64.97
78573;BME280;67862;0.000;0.000;2023-02-28T04:02:24;100181.31;;;21.08;64.16
78573;BME280;67862;0.000;0.000;2023-02-28T04:04:49;100178.53;;;21.03;64.62
78573;BME280;67862;0.000;0.000;2023-02-28T04:07:16;100175.03;;;21.07;64.38
78573;BME280;67862;0.000;0.000;2023-02-28T04:09:42;100178.25;;;20.99;64.86
78573;BME280;67862;0.000;0.000;2023-02-28T04:12:07;100178.03;;;21.06;64.66
78573;BME280;67862;0.000;0.000;2023-02-28T04:14:32;100167.34;;;20.99;64.69
78573;BME280;67862;0.000;0.000;2023-02-28T04:16:58;100178.00;;;21.01;64.57
78573;BME280;67862;0.000;0.000;2023-02-28T04:19:23;100169.28;;;21.04;64.77
78573;BME280;67862;0.000;0.000;2023-02-28T04:21:52;100172.53;;;21.01;64.10
78573;BME280;67862;0.000;0.000;2023-02-28T04:24:18;100169.81;;;21.01;64.31
78573;BME280;67862;0.000;0.000;2023-02-28T04:26:47;100166.53;;;20.99;64.63
78573;BME280;67862;0.000;0.000;2023-02-28T04:29:14;100172.81;;;20.99;64.06
78573;BME280;67862;0.000;0.000;2023-02-28T04:31:40;100158.28;;;20.94;64.55
78573;BME280;67862;0.000;0.000;2023-02-28T04:34:05;100164.88;;;20.98;64.37
78573;BME280;67862;0.000;0.000;2023-02-28T04:36:31;100162.38;;;20.91;64.12
78573;BME280;67862;0.000;0.000;2023-02-28T04:38:56;100164.50;;;20.84;64.14
78573;BME280;67862;0.000;0.000;2023-02-28T04:41:22;100167.28;;;20.89;63.81
78573;BME280;67862;0.000;0.000;2023-02-28T04:43:48;100169.72;;;20.91;63.60
78573;BME280;67862;0.000;0.000;2023-02-28T04:46:13;100177.38;;;20.89;63.46
78573;BME280;67862;0.000;0.000;2023-02-28T04:48:39;100170.00;;;20.89;63.39
78573;BME280;67862;0.000;0.000;2023-02-28T04:51:06;100171.31;;;20.81;63.68
78573;BME280;67862;0.000;0.000;2023-02-28T04:53:32;100164.25;;;20.85;63.66
78573;BME280;67862;0.000;0.000;2023-02-28T04:55:58;100164.25;;;20.85;63.50
78573;BME280;67862;0.000;0.000;2023-02-28T04:58:23;100159.34;;;20.88;63.54
78573;BME280;67862;0.000;0.000;2023-02-28T05:00:49;100161.78;;;20.84;62.41
78573;BME280;67862;0.000;0.000;2023-02-28T05:03:14;100159.63;;;20.91;63.20
78573;BME280;67862;0.000;0.000;2023-02-28T05:05:40;100158.75;;;20.80;63.63
78573;BME280;67862;0.000;0.000;2023-02-28T05:08:05;100160.31;;;20.71;63.19
78573;BME280;67862;0.000;0.000;2023-02-28T05:10:31;100163.09;;;20.76;63.57
78573;BME280;67862;0.000;0.000;2023-02-28T05:12:57;100157.94;;;20.80;64.03
78573;BME280;67862;0.000;0.000;2023-02-28T05:15:22;100162.84;;;20.78;62.97
78573;BME280;67862;0.000;0.000;2023-02-28T05:17:47;100166.94;;;20.80;63.43
78573;BME280;67862;0.000;0.000;2023-02-28T05:20:13;100168.56;;;20.76;63.50
78573;BME280;67862;0.000;0.000;2023-02-28T05:22:39;100174.84;;;20.82;63.12
78573;BME280;67862;0.000;0.000;2023-02-28T05:25:04;100170.75;;;20.79;62.97
78573;BME280;67862;0.000;0.000;2023-02-28T05:27:31;100179.50;;;20.81;63.55
78573;BME280;67862;0.000;0.000;2023-02-28T05:29:56;100177.84;;;20.80;63.17
78573;BME280;67862;0.000;0.000;2023-02-28T05:32:21;100175.09;;;20.75;63.70
78573;BME280;67862;0.000;0.000;2023-02-28T05:34:47;100169.94;;;20.79;63.47
78573;BME280;67862;0.000;0.000;2023-02-28T05:37:12;100168.03;;;20.79;64.00
78573;BME280;67862;0.000;0.000;2023-02-28T05:39:38;100177.09;;;20.90;63.31
78573;BME280;67862;0.000;0.000;2023-02-28T05:42:03;100182.84;;;20.89;63.51
78573;BME280;67862;0.000;0.000;2023-02-28T05:44:29;100187.19;;;20.84;63.51
78573;BME280;67862;0.000;0.000;2023-02-28T05:46:54;100194.78;;;20.82;63.58
78573;BME280;67862;0.000;0.000;2023-02-28T05:49:20;100195.31;;;20.79;63.56
78573;BME280;67862;0.000;0.000;2023-02-28T05:51:45;100194.56;;;20.89;63.29
78573;BME280;67862;0.000;0.000;2023-02-28T05:54:10;100192.94;;;20.88;63.51
78573;BME280;67862;0.000;0.000;2023-02-28T05:56:36;100201.38;;;20.86;63.41
78573;BME280;67862;0.000;0.000;2023-02-28T05:59:04;100196.69;;;20.82;63.65
78573;BME280;67862;0.000;0.000;2023-02-28T06:01:34;100193.69;;;20.83;64.06
78573;BME280;67862;0.000;0.000;2023-02-28T06:04:00;100198.59;;;20.81;63.78
78573;BME280;67862;0.000;0.000;2023-02-28T06:06:26;100198.03;;;20.79;63.72
78573;BME280;67862;0.000;0.000;2023-02-28T06:08:51;100203.16;;;20.71;63.45
78573;BME280;67862;0.000;0.000;2023-02-28T06:11:17;100212.97;;;20.67;63.85
78573;BME280;67862;0.000;0.000;2023-02-28T06:13:44;100216.44;;;20.57;63.29
78573;BME280;67862;0.000;0.000;2023-02-28T06:16:10;100215.34;;;20.58;62.99
78573;BME280;67862;0.000;0.000;2023-02-28T06:18:36;100218.88;;;20.58;62.56
78573;BME280;67862;0.000;0.000;2023-02-28T06:21:01;100213.69;;;20.57;61.95
78573;BME280;67862;0.000;0.000;2023-02-28T06:23:27;100220.13;;;18.47;51.39
78573;BME280;67862;0.000;0.000;2023-02-28T06:25:52;100231.59;;;17.40;65.02
78573;BME280;67862;0.000;0.000;2023-02-28T06:28:18;100221.13;;;19.47;64.56
78573;BME280;67862;0.000;0.000;2023-02-28T06:30:43;100222.72;;;20.36;61.88
78573;BME280;67862;0.000;0.000;2023-02-28T06:33:09;100230.56;;;20.54;60.64
78573;BME280;67862;0.000;0.000;2023-02-28T06:35:34;100219.91;;;20.52;60.34
78573;BME280;67862;0.000;0.000;2023-02-28T06:38:00;100220.72;;;20.48;59.66
78573;BME280;67862;0.000;0.000;2023-02-28T06:40:25;100225.84;;;20.44;59.49
78573;BME280;67862;0.000;0.000;2023-02-28T06:42:51;100234.50;;;20.41;59.84
78573;BME280;67862;0.000;0.000;2023-02-28T06:45:17;100219.56;;;20.44;58.97
78573;BME280;67862;0.000;0.000;2023-02-28T06:47:45;100231.44;;;20.60;58.40
78573;BME280;67862;0.000;0.000;2023-02-28T06:50:11;100229.09;;;20.73;57.82
78573;BME280;67862;0.000;0.000;2023-02-28T06:52:37;100223.72;;;20.83;58.02
78573;BME280;67862;0.000;0.000;2023-02-28T06:55:04;100227.06;;;20.91;57.96
78573;BME280;67862;0.000;0.000;2023-02-28T06:57:30;100230.34;;;20.93;57.77
78573;BME280;67862;0.000;0.000;2023-02-28T06:59:59;100231.66;;;20.85;58.27
78573;BME280;67862;0.000;0.000;2023-02-28T07:02:25;100234.59;;;20.78;58.61
78573;BME280;67862;0.000;0.000;2023-02-28T07:04:51;100236.78;;;20.76;57.78
78573;BME280;67862;0.000;0.000;2023-02-28T07:07:19;100235.69;;;20.77;57.90
78573;BME280;67862;0.000;0.000;2023-02-28T07:09:53;100241.16;;;20.77;58.14
78573;BME280;67862;0.000;0.000;2023-02-28T07:12:19;100241.16;;;20.77;57.96
78573;BME280;67862;0.000;0.000;2023-02-28T07:14:47;100248.50;;;20.77;57.55
78573;BME280;67862;0.000;0.000;2023-02-28T07:17:12;100243.31;;;20.75;57.91
78573;BME280;67862;0.000;0.000;2023-02-28T07:19:38;100254.25;;;20.75;58.04
78573;BME280;67862;0.000;0.000;2023-02-28T07:22:04;100258.03;;;20.74;57.75
78573;BME280;67862;0.000;0.000;2023-02-28T07:24:30;100258.59;;;20.76;57.41
78573;BME280;67862;0.000;0.000;2023-02-28T07:26:55;100261.84;;;20.73;57.69
78573;BME280;67862;0.000;0.000;2023-02-28T07:29:21;100262.09;;;20.72;57.70
78573;BME280;67862;0.000;0.000;2023-02-28T07:31:46;100268.94;;;20.74;57.94
78573;BME280;67862;0.000;0.000;2023-02-28T07:34:12;100265.66;;;20.72;57.68
78573;BME280;67862;0.000;0.000;2023-02-28T07:36:37;100261.28;;;20.71;57.60
78573;BME280;67862;0.000;0.000;2023-02-28T07:39:03;100271.94;;;20.73;57.63
78573;BME280;67862;0.000;0.000;2023-02-28T07:41:29;100262.38;;;20.70;57.61
78573;BME280;67862;0.000;0.000;2023-02-28T07:43:58;100267.00;;;20.70;57.74
78573;BME280;67862;0.000;0.000;2023-02-28T07:46:25;100267.81;;;20.70;57.45
78573;BME280;67862;0.000;0.000;2023-02-28T07:48:50;100265.63;;;20.67;57.80
78573;BME280;67862;0.000;0.000;2023-02-28T07:51:20;100266.19;;;20.69;57.31
78573;BME280;67862;0.000;0.000;2023-02-28T07:53:45;100265.63;;;20.67;57.53
78573;BME280;67862;0.000;0.000;2023-02-28T07:56:11;100262.91;;;20.67;57.35
78573;BME280;67862;0.000;0.000;2023-02-28T07:58:36;100269.94;;;20.63;57.34
78573;BME280;67862;0.000;0.000;2023-02-28T08:01:05;100273.81;;;20.67;57.40
78573;BME280;67862;0.000;0.000;2023-02-28T08:03:31;100266.44;;;20.68;57.63
78573;BME280;67862;0.000;0.000;2023-02-28T08:05:56;100272.47;;;20.70;57.13
78573;BME280;67862;0.000;0.000;2023-02-28T08:08:22;100278.69;;;20.65;57.62
78573;BME280;67862;0.000;0.000;2023-02-28T08:10:47;100264.53;;;20.68;57.47
78573;BME280;67862;0.000;0.000;2023-02-28T08:13:12;100269.47;;;20.71;56.66
78573;BME280;67862;0.000;0.000;2023-02-28T08:15:38;100264.84;;;20.72;56.24
78573;BME280;67862;0.000;0.000;2023-02-28T08:18:03;100265.66;;;20.72;55.33
78573;BME280;67862;0.000;0.000;2023-02-28T08:20:28;100277.09;;;20.69;55.82
78573;BME280;67862;0.000;0.000;2023-02-28T08:22:54;100270.25;;;20.67;55.61
78573;BME280;67862;0.000;0.000;2023-02-28T08:25:28;100268.84;;;20.64;55.79
78573;BME280;67862;0.000;0.000;2023-02-28T08:27:56;100271.34;;;20.66;56.03
78573;BME280;67862;0.000;0.000;2023-02-28T08:30:22;100274.41;;;20.74;55.74
78573;BME280;67862;0.000;0.000;2023-02-28T08:32:47;100282.25;;;19.95;52.69
78573;BME280;67862;0.000;0.000;2023-02-28T08:35:12;100273.81;;;19.36;53.75
78573;BME280;67862;0.000;0.000;2023-02-28T08:37:38;100273.22;;;19.89;54.64
78573;BME280;67862;0.000;0.000;2023-02-28T08:40:03;100278.78;;;20.26;55.89
78573;BME280;67862;0.000;0.000;2023-02-28T08:42:31;100273.66;;;20.52;55.13
78573;BME280;67862;0.000;0.000;2023-02-28T08:44:57;100283.00;;;20.61;54.78
78573;BME280;67862;0.000;0.000;2023-02-28T08:47:22;100273.19;;;20.60;55.00
78573;BME280;67862;0.000;0.000;2023-02-28T08:49:48;100272.09;;;20.61;54.80
78573;BME280;67862;0.000;0.000;2023-02-28T08:52:13;100266.94;;;20.65;54.19
78573;BME280;67862;0.000;0.000;2023-02-28T08:54:39;100268.84;;;20.64;54.47
78573;BME280;67862;0.000;0.000;2023-02-28T08:57:04;100270.00;;;20.68;54.19
78573;BME280;67862;0.000;0.000;2023-02-28T08:59:30;100273.22;;;20.65;54.25
78573;BME280;67862;0.000;0.000;2023-02-28T09:01:55;100271.00;;;20.62;54.13
78573;BME280;67862;0.000;0.000;2023-02-28T09:04:21;100279.75;;;20.64;54.31
78573;BME280;67862;0.000;0.000;2023-02-28T09:06:47;100274.91;;;20.71;54.57
78573;BME280;67862;0.000;0.000;2023-02-28T09:09:14;100275.66;;;20.62;54.56
78573;BME280;67862;0.000;0.000;2023-02-28T09:11:39;100277.84;;;20.65;53.94
78573;BME280;67862;0.000;0.000;2023-02-28T09:14:06;100281.09;;;20.62;53.58
78573;BME280;67862;0.000;0.000;2023-02-28T09:16:35;100273.81;;;20.67;53.77
78573;BME280;67862;0.000;0.000;2023-02-28T09:19:00;100274.19;;;20.81;52.99
78573;BME280;67862;0.000;0.000;2023-02-28T09:21:26;100278.66;;;20.92;53.00
78573;BME280;67862;0.000;0.000;2023-02-28T09:23:54;100280.53;;;20.86;53.06
78573;BME280;67862;0.000;0.000;2023-02-28T09:26:25;100278.88;;;20.85;53.38
78573;BME280;67862;0.000;0.000;2023-02-28T09:28:53;100277.19;;;20.79;53.54
78573;BME280;67862;0.000;0.000;2023-02-28T09:36:47;100284.09;;;20.92;53.95
78573;BME280;67862;0.000;0.000;2023-02-28T09:39:21;100275.56;;;21.15;53.94
78573;BME280;67862;0.000;0.000;2023-02-28T09:41:47;100270.44;;;22.34;50.62
78573;BME280;67862;0.000;0.000;2023-02-28T09:46:48;100270.94;;;22.11;52.18
78573;BME280;67862;0.000;0.000;2023-02-28T09:49:19;100264.56;;;21.95;52.42
78573;BME280;67862;0.000;0.000;2023-02-28T09:51:55;100285.50;;;18.12;48.34
78573;BME280;67862;0.000;0.000;2023-02-28T09:54:24;100284.66;;;16.59;49.81
78573;BME280;67862;0.000;0.000;2023-02-28T09:56:51;100288.59;;;16.34;48.19
78573;BME280;67862;0.000;0.000;2023-02-28T10:04:46;100284.16;;;15.04;47.23
78573;BME280;67862;0.000;0.000;2023-02-28T10:09:43;100287.13;;;14.40;47.33
78573;BME280;67862;0.000;0.000;2023-02-28T10:12:10;100281.84;;;14.13;47.76
78573;BME280;67862;0.000;0.000;2023-02-28T10:14:39;100274.56;;;16.07;49.76
78573;BME280;67862;0.000;0.000;2023-02-28T10:17:14;100263.78;;;18.12;51.69
78573;BME280;67862;0.000;0.000;2023-02-28T10:22:15;100266.72;;;19.35;50.56
78573;BME280;67862;0.000;0.000;2023-02-28T10:24:43;100248.53;;;18.85;40.53
78573;BME280;67862;0.000;0.000;2023-02-28T10:27:18;100257.44;;;19.14;48.46
78573;BME280;67862;0.000;0.000;2023-02-28T10:29:55;100254.81;;;19.58;49.82
78573;BME280;67862;0.000;0.000;2023-02-28T10:32:22;100257.34;;;19.86;50.08
78573;BME280;67862;0.000;0.000;2023-02-28T10:35:14;100245.25;;;19.38;39.33
78573;BME280;67862;0.000;0.000;2023-02-28T10:37:44;100237.91;;;19.39;43.40
78573;BME280;67862;0.000;0.000;2023-02-28T10:45:32;100249.25;;;19.91;44.31
78573;BME280;67862;0.000;0.000;2023-02-28T10:48:10;100245.31;;;20.04;47.72
78573;BME280;67862;0.000;0.000;2023-02-28T10:50:51;100237.41;;;20.29;47.25
78573;BME280;67862;0.000;0.000;2023-02-28T10:56:05;100234.72;;;20.35;47.48
78573;BME280;67862;0.000;0.000;2023-02-28T11:00:59;100234.44;;;20.36;47.97
78573;BME280;67862;0.000;0.000;2023-02-28T11:03:34;100237.19;;;20.36;48.73
78573;BME280;67862;0.000;0.000;2023-02-28T11:06:07;100245.69;;;20.40;49.32
78573;BME280;67862;0.000;0.000;2023-02-28T11:08:33;100235.94;;;20.44;50.23
78573;BME280;67862;0.000;0.000;2023-02-28T11:11:01;100234.59;;;20.46;50.30
78573;BME280;67862;0.000;0.000;2023-02-28T11:13:32;100229.44;;;20.50;51.12
78573;BME280;67862;0.000;0.000;2023-02-28T11:16:00;100237.16;;;20.58;51.12
78573;BME280;67862;0.000;0.000;2023-02-28T11:18:30;100230.34;;;20.61;51.19
78573;BME280;67862;0.000;0.000;2023-02-28T11:20:56;100234.16;;;20.60;51.45
78573;BME280;67862;0.000;0.000;2023-02-28T11:23:24;100227.06;;;20.58;51.48
78573;BME280;67862;0.000;0.000;2023-02-28T11:25:51;100230.34;;;20.61;51.34
78573;BME280;67862;0.000;0.000;2023-02-28T11:28:32;100230.09;;;20.62;51.50
78573;BME280;67862;0.000;0.000;2023-02-28T11:31:14;100226.00;;;20.65;51.29
78573;BME280;67862;0.000;0.000;2023-02-28T11:36:29;100220.91;;;20.73;51.26
78573;BME280;67862;0.000;0.000;2023-02-28T11:38:56;100222.56;;;20.74;50.88
78573;BME280;67862;0.000;0.000;2023-02-28T11:47:02;100219.31;;;20.77;51.24
78573;BME280;67862;0.000;0.000;2023-02-28T11:57:21;100211.22;;;20.88;51.26
78573;BME280;67862;0.000;0.000;2023-02-28T12:00:14;100207.94;;;20.91;51.55
78573;BME280;67862;0.000;0.000;2023-02-28T12:08:23;100202.56;;;21.01;52.17
78573;BME280;67862;0.000;0.000;2023-02-28T12:13:24;100201.78;;;21.05;52.14
78573;BME280;67862;0.000;0.000;2023-02-28T12:24:00;100200.75;;;21.17;51.89
78573;BME280;67862;0.000;0.000;2023-02-28T12:31:38;100183.88;;;21.25;51.35
78573;BME280;67862;0.000;0.000;2023-02-28T12:34:13;100178.69;;;21.23;51.81
78573;BME280;67862;0.000;0.000;2023-02-28T12:36:43;100182.56;;;21.27;51.85
78573;BME280;67862;0.000;0.000;2023-02-28T12:42:11;100180.41;;;21.34;52.08
78573;BME280;67862;0.000;0.000;2023-02-28T12:47:23;100172.22;;;21.39;51.71
78573;BME280;67862;0.000;0.000;2023-02-28T12:50:06;100175.22;;;21.38;51.69
78573;BME280;67862;0.000;0.000;2023-02-28T12:58:08;100171.16;;;21.46;51.65
78573;BME280;67862;0.000;0.000;2023-02-28T13:00:42;100172.81;;;21.47;51.71
78573;BME280;67862;0.000;0.000;2023-02-28T13:03:22;100164.34;;;21.43;51.61
78573;BME280;67862;0.000;0.000;2023-02-28T13:14:14;100156.19;;;21.53;50.72
78573;BME280;67862;0.000;0.000;2023-02-28T13:22:50;100160.03;;;21.62;49.99
78573;BME280;67862;0.000;0.000;2023-02-28T13:45:23;100139.50;;;21.50;50.57
78573;BME280;67862;0.000;0.000;2023-02-28T13:47:40;100138.66;;;21.49;50.72
78573;BME280;67862;0.000;0.000;2023-02-28T13:50:32;100136.75;;;21.50;50.79
78573;BME280;67862;0.000;0.000;2023-02-28T13:58:22;100132.19;;;21.65;50.22
78573;BME280;67862;0.000;0.000;2023-02-28T14:06:17;100126.44;;;21.67;50.33
78573;BME280;67862;0.000;0.000;2023-02-28T14:08:50;100126.44;;;21.67;50.55
78573;BME280;67862;0.000;0.000;2023-02-28T14:11:25;100128.59;;;21.60;50.74
78573;BME280;67862;0.000;0.000;2023-02-28T14:13:53;100125.31;;;21.58;50.48
78573;BME280;67862;0.000;0.000;2023-02-28T14:16:52;100115.19;;;21.58;50.41
78573;BME280;67862;0.000;0.000;2023-02-28T14:30:10;100126.13;;;21.53;50.94
78573;BME280;67862;0.000;0.000;2023-02-28T14:37:51;100111.91;;;21.51;50.91
78573;BME280;67862;0.000;0.000;2023-02-28T14:40:30;100119.53;;;21.49;50.78
78573;BME280;67862;0.000;0.000;2023-02-28T14:42:59;100116.53;;;21.51;50.65
78573;BME280;67862;0.000;0.000;2023-02-28T14:45:28;100114.09;;;21.49;50.90
78573;BME280;67862;0.000;0.000;2023-02-28T14:47:55;100116.00;;;21.49;51.12
78573;BME280;67862;0.000;0.000;2023-02-28T14:50:22;100119.81;;;21.48;50.84
78573;BME280;67862;0.000;0.000;2023-02-28T14:52:51;100122.53;;;21.48;51.10
78573;BME280;67862;0.000;0.000;2023-02-28T15:11:12;100129.66;;;21.43;50.93
78573;BME280;67862;0.000;0.000;2023-02-28T15:16:39;100128.00;;;21.42;51.07
78573;BME280;67862;0.000;0.000;2023-02-28T15:29:07;100129.63;;;21.38;51.38
78573;BME280;67862;0.000;0.000;2023-02-28T15:34:54;100124.16;;;21.38;51.13
78573;BME280;67862;0.000;0.000;2023-02-28T15:45:38;100125.50;;;21.36;51.16
78573;BME280;67862;0.000;0.000;2023-02-28T15:48:28;100124.69;;;21.35;51.27
78573;BME280;67862;0.000;0.000;2023-02-28T15:50:52;100117.59;;;21.34;50.91
78573;BME280;67862;0.000;0.000;2023-02-28T15:53:30;100114.03;;;21.34;51.00
78573;BME280;67862;0.000;0.000;2023-02-28T15:55:58;100119.75;;;21.32;51.39
78573;BME280;67862;0.000;0.000;2023-02-28T15:58:29;100113.22;;;21.33;51.11
78573;BME280;67862;0.000;0.000;2023-02-28T16:01:04;100114.28;;;21.32;51.33
78573;BME280;67862;0.000;0.000;2023-02-28T16:06:36;100118.94;;;21.32;51.03
78573;BME280;67862;0.000;0.000;2023-02-28T16:09:03;100117.00;;;21.32;51.25
78573;BME280;67862;0.000;0.000;2023-02-28T16:11:28;100115.66;;;21.30;51.11
78573;BME280;67862;0.000;0.000;2023-02-28T16:13:58;100120.25;;;21.24;51.09
78573;BME280;67862;0.000;0.000;2023-02-28T16:16:28;100122.97;;;21.24;50.73
78573;BME280;67862;0.000;0.000;2023-02-28T16:19:02;100129.53;;;21.23;50.30
78573;BME280;67862;0.000;0.000;2023-02-28T16:21:30;100132.56;;;21.27;50.52
78573;BME280;67862;0.000;0.000;2023-02-28T16:23:55;100127.88;;;21.22;50.47
78573;BME280;67862;0.000;0.000;2023-02-28T16:26:21;100124.63;;;21.25;50.29
78573;BME280;67862;0.000;0.000;2023-02-28T16:28:48;100128.75;;;21.28;50.47
78573;BME280;67862;0.000;0.000;2023-02-28T16:31:15;100133.63;;;21.26;50.42
78573;BME280;67862;0.000;0.000;2023-02-28T16:33:41;100132.56;;;21.27;50.53
78573;BME280;67862;0.000;0.000;2023-02-28T16:36:09;100129.84;;;21.27;50.80
78573;BME280;67862;0.000;0.000;2023-02-28T16:38:35;100134.53;;;21.36;50.43
78573;BME280;67862;0.000;0.000;2023-02-28T16:41:00;100130.75;;;21.42;50.41
78573;BME280;67862;0.000;0.000;2023-02-28T16:43:26;100130.97;;;21.41;50.66
78573;BME280;67862;0.000;0.000;2023-02-28T16:45:55;100134.53;;;21.36;50.49
78573;BME280;67862;0.000;0.000;2023-02-28T16:48:23;100132.59;;;21.32;50.76
78573;BME280;67862;0.000;0.000;2023-02-28T16:50:54;100139.13;;;21.31;51.05
78573;BME280;67862;0.000;0.000;2023-02-28T16:53:19;100136.13;;;21.32;50.80